Airfield :
LOGIN :

Register | Disclaimer

   EN    FR    IT 

 










Legend :    VFR   Marginal VFR   IFR   Intensive IFR   Very Intensive IFR
Visi :
Ceiling :
>= 8 km
>= 3000ft
5 to 8 km
1000 to 3000 ft
1500m to 5 km
500 to 1000 ft
800 to 1500m
200 to 500 ft
< 800m
< 200 ft
Symbols :   Thunderstorms  Fog  Heavy snow  Heavy precipitations  Wind > 20 kt
SIGMETs :     Misc.  Thunderstorms  Icing  Turbulence  Mountain Waves  Volcanic Ashes






- Airport Elevation : 584 ft


LFPV - Villacoublay Vélizy

CURRENT METAR :
  • 181900Z AUTO 21004KT 170V230 9999 BKN035 BKN042 04/02 Q1024 BECMG BKN008

EXPIRED METARs :
  • 181830Z AUTO 22005KT 9999 BKN037 BKN180 05/02 Q1024 BECMG BKN008
  • 181800Z AUTO 22006KT 9999 OVC039 05/02 Q1024 NOSIG
  • 181730Z AUTO 22005KT 190V260 9999 BKN039 BKN160 BKN230 05/02 Q1024 NOSIG
  • 181700Z AUTO 22004KT 190V250 CAVOK 05/02 Q1024 NOSIG
  • 181630Z AUTO 22005KT 190V250 CAVOK 05/02 Q1024 NOSIG

TAF TAF LFPV
Valid from the 18 at 15:00 until the 19 at 15:00 UTC


181400Z 1815/1915 22010KT 9999 BKN025 TX06/1815Z TN03/1903Z
BECMG 1820/1822 BKN008
BECMG 1900/1901 22015G25KT
BECMG 1908/1910 22010G20KT SCT015



MET'MAP, your aeronautical weather chart ! - Copyright ORBIFLY December 2007 - Disclaimer

ORBIFLY MET'MAP TEAM :

Programming & Development : Alexandra Zaïnal
Concept & original design : Baudouin d'Aumeries
Assistance for programming : Marc-Olivier Méhu
Technical & hardware support : Manuel Goepfert

Contact : metmap@orbifly.com




SOURCES & CREDITS :

   NOAA